createdAt,value
2018-10-17T00:00:18.354Z,10.50
2018-10-17T00:02:47.636Z,10.50
2018-10-17T00:05:17.018Z,10.40
2018-10-17T00:07:46.389Z,10.40
2018-10-17T00:10:16.833Z,10.40
2018-10-17T00:12:46.194Z,10.30
2018-10-17T00:15:15.444Z,10.30
2018-10-17T00:17:44.824Z,10.30
2018-10-17T00:20:14.047Z,10.40
2018-10-17T00:22:43.306Z,10.40
2018-10-17T00:25:12.488Z,10.40
2018-10-17T00:27:41.588Z,10.30
2018-10-17T00:30:12.528Z,10.30
2018-10-17T00:32:41.831Z,10.30
2018-10-17T00:35:11.404Z,10.30
2018-10-17T00:37:40.533Z,10.20
2018-10-17T00:40:09.669Z,10.20
2018-10-17T00:42:38.933Z,10.20
2018-10-17T00:45:08.675Z,10.20
2018-10-17T00:47:37.842Z,10.10
2018-10-17T00:50:07.175Z,10.20
2018-10-17T00:52:36.430Z,10.20
2018-10-17T00:55:06.010Z,10.20
2018-10-17T00:57:35.239Z,10.20
2018-10-17T01:00:04.791Z,10.10
2018-10-17T01:02:34.131Z,10.10
2018-10-17T01:05:03.711Z,10.00
2018-10-17T01:07:33.059Z,10.00
2018-10-17T01:10:02.284Z,9.80
2018-10-17T01:12:31.447Z,9.80
2018-10-17T01:15:00.717Z,9.80
2018-10-17T01:17:29.854Z,9.80
2018-10-17T01:19:58.971Z,9.80
2018-10-17T01:22:28.242Z,9.90
2018-10-17T01:24:57.416Z,9.90
2018-10-17T01:27:26.518Z,9.90
2018-10-17T01:29:55.758Z,9.90
2018-10-17T01:32:25.027Z,9.90
2018-10-17T01:34:54.403Z,9.90
2018-10-17T01:37:23.631Z,9.80
2018-10-17T01:39:52.754Z,9.90
2018-10-17T01:42:22.072Z,9.80
2018-10-17T01:44:51.262Z,9.80
2018-10-17T01:47:20.475Z,9.80
2018-10-17T01:49:49.579Z,9.80
2018-10-17T01:52:18.726Z,9.70
2018-10-17T01:54:48.020Z,9.70
2018-10-17T01:57:20.058Z,9.80
2018-10-17T01:59:49.175Z,9.70
2018-10-17T02:02:21.791Z,9.80
2018-10-17T02:04:51.043Z,9.80
2018-10-17T02:07:20.386Z,9.70
2018-10-17T02:09:49.755Z,9.70
2018-10-17T02:12:19.079Z,9.70
2018-10-17T02:14:49.162Z,9.60
2018-10-17T02:17:18.412Z,9.60
2018-10-17T02:19:47.661Z,9.60
2018-10-17T02:22:16.890Z,9.50
2018-10-17T02:24:46.060Z,9.50
2018-10-17T02:27:15.291Z,9.50
2018-10-17T02:29:44.499Z,9.50
2018-10-17T02:32:13.809Z,9.40
2018-10-17T02:34:47.942Z,9.50
2018-10-17T02:37:17.309Z,9.40
2018-10-17T02:39:46.603Z,9.40
2018-10-17T02:42:15.899Z,9.40
2018-10-17T02:44:45.277Z,9.40
2018-10-17T02:47:14.626Z,9.30
2018-10-17T02:49:43.672Z,9.30
2018-10-17T02:52:12.899Z,9.10
2018-10-17T02:54:42.060Z,9.00
2018-10-17T02:57:11.496Z,9.10
2018-10-17T02:59:40.865Z,9.10
2018-10-17T03:02:10.300Z,9.10
2018-10-17T03:04:39.578Z,9.10
2018-10-17T03:07:08.929Z,9.00
2018-10-17T03:09:38.180Z,9.00
2018-10-17T03:12:07.376Z,9.00
2018-10-17T03:14:36.467Z,9.10
2018-10-17T03:17:05.764Z,9.10
2018-10-17T03:19:40.592Z,9.10
2018-10-17T03:22:09.725Z,9.10
2018-10-17T03:24:38.987Z,9.10
2018-10-17T03:27:08.319Z,9.10
2018-10-17T03:29:37.588Z,9.10
2018-10-17T03:32:07.124Z,9.10
2018-10-17T03:34:37.544Z,9.10
2018-10-17T03:37:07.013Z,9.10
2018-10-17T03:39:36.216Z,9.10
2018-10-17T03:42:05.455Z,9.10
2018-10-17T03:44:34.512Z,9.00
2018-10-17T03:47:03.802Z,9.00
2018-10-17T03:49:33.049Z,9.00
2018-10-17T03:52:02.242Z,9.00
2018-10-17T03:54:31.399Z,9.00
2018-10-17T03:57:00.536Z,9.00
2018-10-17T03:59:29.830Z,9.00
2018-10-17T04:01:58.936Z,9.00
2018-10-17T04:04:28.080Z,9.00
2018-10-17T04:06:57.249Z,9.00
2018-10-17T04:09:26.368Z,8.90
2018-10-17T04:11:55.500Z,8.90
2018-10-17T04:14:24.885Z,9.00
2018-10-17T04:16:54.110Z,9.00
2018-10-17T04:19:23.478Z,9.00
2018-10-17T04:21:52.811Z,8.90
2018-10-17T04:24:22.080Z,8.90
2018-10-17T04:26:51.290Z,8.80
2018-10-17T04:29:21.641Z,8.70
2018-10-17T04:31:51.038Z,8.60
2018-10-17T04:34:22.192Z,8.70
2018-10-17T04:36:51.400Z,8.70
2018-10-17T04:39:20.676Z,8.80
2018-10-17T04:41:50.043Z,8.80
2018-10-17T04:44:19.271Z,8.80
2018-10-17T04:46:48.544Z,8.80
2018-10-17T04:49:17.933Z,8.80
2018-10-17T04:51:47.041Z,8.80
2018-10-17T04:54:16.267Z,8.80
2018-10-17T04:56:45.541Z,8.60
2018-10-17T04:59:14.777Z,8.70
2018-10-17T05:01:43.932Z,8.70
2018-10-17T05:04:13.171Z,8.70
2018-10-17T05:06:42.347Z,8.70
2018-10-17T05:09:12.444Z,8.70
2018-10-17T05:11:41.952Z,8.70
2018-10-17T05:14:11.178Z,8.70
2018-10-17T05:16:40.606Z,8.60
2018-10-17T05:19:10.127Z,8.60
2018-10-17T05:21:39.252Z,8.60
2018-10-17T05:24:08.376Z,8.60
2018-10-17T05:26:37.648Z,8.60
2018-10-17T05:29:06.883Z,8.60
2018-10-17T05:31:35.934Z,8.60
2018-10-17T05:34:05.273Z,8.60
2018-10-17T05:36:34.339Z,8.60
2018-10-17T05:39:04.247Z,8.50
2018-10-17T05:41:33.344Z,8.50
2018-10-17T05:44:02.669Z,8.50
2018-10-17T05:46:31.938Z,8.60
2018-10-17T05:49:01.094Z,8.60
2018-10-17T05:51:30.216Z,8.60
2018-10-17T05:53:59.363Z,8.60
2018-10-17T05:56:28.719Z,8.60
2018-10-17T05:58:57.999Z,8.60
2018-10-17T06:01:27.255Z,8.50
2018-10-17T06:03:56.572Z,8.60
2018-10-17T06:06:25.728Z,8.60
2018-10-17T06:08:54.979Z,8.60
2018-10-17T06:11:24.124Z,8.60
2018-10-17T06:13:53.251Z,8.60
2018-10-17T06:16:22.871Z,8.70
2018-10-17T06:18:52.299Z,8.70
2018-10-17T06:21:21.526Z,8.80
2018-10-17T06:23:50.747Z,8.80
2018-10-17T06:26:20.078Z,8.80
2018-10-17T06:28:49.252Z,8.90
2018-10-17T06:31:19.298Z,8.90
2018-10-17T06:33:48.677Z,9.00
2018-10-17T06:36:17.940Z,9.00
2018-10-17T06:38:47.068Z,9.10
2018-10-17T06:41:16.415Z,9.10
2018-10-17T06:43:45.743Z,9.20
2018-10-17T06:46:14.724Z,9.20
2018-10-17T06:48:43.967Z,9.30
2018-10-17T06:51:13.153Z,9.30
2018-10-17T06:53:42.422Z,9.30
2018-10-17T06:56:11.508Z,9.40
2018-10-17T06:58:40.618Z,9.40
2018-10-17T07:01:10.079Z,9.40
2018-10-17T07:03:39.340Z,9.50
2018-10-17T07:06:08.749Z,9.50
2018-10-17T07:08:37.994Z,9.60
2018-10-17T07:11:07.243Z,9.60
2018-10-17T07:13:36.370Z,9.60
2018-10-17T07:16:05.646Z,9.70
2018-10-17T07:18:34.806Z,9.70
2018-10-17T07:21:04.043Z,9.80
2018-10-17T07:23:33.219Z,9.90
2018-10-17T07:26:02.649Z,9.90
2018-10-17T07:28:31.897Z,10.00
2018-10-17T07:31:01.246Z,10.00
2018-10-17T07:33:30.499Z,10.10
2018-10-17T07:35:59.840Z,10.20
2018-10-17T07:38:29.102Z,10.30
2018-10-17T07:40:58.415Z,10.40
2018-10-17T07:43:27.507Z,10.40
2018-10-17T07:45:56.715Z,10.50
2018-10-17T07:48:26.100Z,10.60
2018-10-17T07:50:55.428Z,10.70
2018-10-17T07:53:24.699Z,10.80
2018-10-17T07:55:54.133Z,10.80
2018-10-17T07:58:23.295Z,10.90
2018-10-17T08:00:52.528Z,11.00
2018-10-17T08:03:21.671Z,11.20
2018-10-17T08:05:50.916Z,11.40
2018-10-17T08:08:20.183Z,11.50
2018-10-17T08:10:49.528Z,11.60
2018-10-17T08:13:18.787Z,11.70
2018-10-17T08:15:48.114Z,11.80
2018-10-17T08:18:17.372Z,11.90
2018-10-17T08:20:46.615Z,12.00
2018-10-17T08:23:15.778Z,12.10
2018-10-17T08:25:45.021Z,12.20
2018-10-17T08:28:14.174Z,12.30
2018-10-17T08:30:43.300Z,12.30
2018-10-17T08:33:12.450Z,12.40
2018-10-17T08:35:41.786Z,12.50
2018-10-17T08:38:10.935Z,12.60
2018-10-17T08:40:40.195Z,12.80
2018-10-17T08:43:09.462Z,12.80
2018-10-17T08:45:38.788Z,12.80
2018-10-17T08:48:08.172Z,12.90
2018-10-17T08:50:37.324Z,13.00
2018-10-17T08:53:06.667Z,13.10
2018-10-17T08:55:35.887Z,13.10
2018-10-17T08:58:05.104Z,13.20
2018-10-17T09:00:34.287Z,13.40
2018-10-17T09:03:03.652Z,13.50
2018-10-17T09:05:32.884Z,13.60
2018-10-17T09:08:02.396Z,13.70
2018-10-17T09:10:31.592Z,13.80
2018-10-17T09:13:00.771Z,13.90
2018-10-17T09:15:29.982Z,14.00
2018-10-17T09:17:59.209Z,14.10
2018-10-17T09:20:28.433Z,14.20
2018-10-17T09:22:57.544Z,14.30
2018-10-17T09:25:26.821Z,14.40
2018-10-17T09:27:56.238Z,14.40
2018-10-17T09:30:25.765Z,14.50
2018-10-17T09:32:54.789Z,14.70
2018-10-17T09:35:24.052Z,14.80
2018-10-17T09:37:53.282Z,15.00
2018-10-17T09:40:22.439Z,15.10
2018-10-17T09:42:51.771Z,15.10
2018-10-17T09:45:20.991Z,15.20
2018-10-17T09:47:50.257Z,15.20
2018-10-17T09:50:35.019Z,15.30
2018-10-17T09:53:04.318Z,15.40
2018-10-17T09:55:33.496Z,15.70
2018-10-17T09:58:02.815Z,15.80
2018-10-17T10:00:36.936Z,15.80
2018-10-17T10:03:06.244Z,15.90
2018-10-17T10:05:35.608Z,15.90
2018-10-17T10:08:04.835Z,15.90
2018-10-17T10:10:34.207Z,16.10
2018-10-17T10:13:03.332Z,16.10
2018-10-17T10:15:32.499Z,16.10
2018-10-17T10:18:01.824Z,16.10
2018-10-17T10:20:31.211Z,16.10
2018-10-17T10:23:00.454Z,16.20
2018-10-17T10:25:29.591Z,16.20
2018-10-17T10:27:58.880Z,16.20
2018-10-17T10:30:28.027Z,16.40
2018-10-17T10:32:57.251Z,16.30
2018-10-17T10:35:26.380Z,16.40
2018-10-17T10:37:55.512Z,16.50
2018-10-17T10:40:24.926Z,16.40
2018-10-17T10:42:54.115Z,16.60
2018-10-17T10:45:23.501Z,16.50
2018-10-17T10:47:52.835Z,16.60
2018-10-17T10:50:22.110Z,16.60
2018-10-17T10:52:51.332Z,16.60
2018-10-17T10:55:20.579Z,16.70
2018-10-17T10:57:49.838Z,16.60
2018-10-17T11:00:19.154Z,16.70
2018-10-17T11:02:48.202Z,16.70
2018-10-17T11:05:17.648Z,16.70
2018-10-17T11:07:47.006Z,16.90
2018-10-17T11:10:16.167Z,17.00
2018-10-17T11:13:00.925Z,16.90
2018-10-17T11:15:31.379Z,16.80
2018-10-17T11:18:00.787Z,16.70
2018-10-17T11:20:30.069Z,16.70
2018-10-17T11:22:59.312Z,16.80
2018-10-17T11:25:28.565Z,16.80
2018-10-17T11:27:57.791Z,16.80
2018-10-17T11:30:26.955Z,16.80
2018-10-17T11:32:56.101Z,17.00
2018-10-17T11:35:25.261Z,16.90
2018-10-17T11:37:54.593Z,17.00
2018-10-17T11:40:24.028Z,17.00
2018-10-17T11:42:53.179Z,17.10
2018-10-17T11:45:22.556Z,17.10
2018-10-17T11:47:51.853Z,17.10
2018-10-17T11:50:21.193Z,17.10
2018-10-17T11:52:50.385Z,17.30
2018-10-17T11:55:19.738Z,17.20
2018-10-17T11:57:49.084Z,17.40
2018-10-17T12:00:18.383Z,17.30
2018-10-17T12:02:47.683Z,17.20
2018-10-17T12:05:17.280Z,17.30
2018-10-17T12:07:46.294Z,17.30
2018-10-17T12:10:15.443Z,17.50
2018-10-17T12:12:44.558Z,17.60
2018-10-17T12:15:15.131Z,17.70
2018-10-17T12:17:44.203Z,17.60
2018-10-17T12:20:14.659Z,17.60
2018-10-17T12:22:44.794Z,17.70
2018-10-17T12:25:14.493Z,17.60
2018-10-17T12:27:43.698Z,17.60
2018-10-17T12:30:14.110Z,17.80
2018-10-17T12:32:43.289Z,17.80
2018-10-17T12:35:12.832Z,18.00
2018-10-17T12:37:42.135Z,18.00
2018-10-17T12:40:11.791Z,17.90
2018-10-17T12:42:40.944Z,17.80
2018-10-17T12:45:10.135Z,17.70
2018-10-17T12:47:39.338Z,18.00
2018-10-17T12:50:09.431Z,17.90
2018-10-17T12:52:38.713Z,17.80
2018-10-17T12:55:08.688Z,17.80
2018-10-17T12:57:37.964Z,17.80
2018-10-17T13:00:09.120Z,17.80
2018-10-17T13:02:38.478Z,17.80
2018-10-17T13:05:08.943Z,17.80
2018-10-17T13:07:38.204Z,17.90
2018-10-17T13:10:08.722Z,17.90
2018-10-17T13:12:37.968Z,18.00
2018-10-17T13:15:08.877Z,18.00
2018-10-17T13:17:38.211Z,18.10
2018-10-17T13:20:07.435Z,18.20
2018-10-17T13:22:36.804Z,18.20
2018-10-17T13:25:06.282Z,18.10
2018-10-17T13:27:35.483Z,18.10
2018-10-17T13:30:05.107Z,18.10
2018-10-17T13:32:34.426Z,18.00
2018-10-17T13:35:03.809Z,17.90
2018-10-17T13:37:33.015Z,17.80
2018-10-17T13:40:02.368Z,17.80
2018-10-17T13:42:31.623Z,18.00
2018-10-17T13:45:00.903Z,18.10
2018-10-17T13:47:30.028Z,18.00
2018-10-17T13:49:59.343Z,17.80
2018-10-17T13:52:28.710Z,17.70
2018-10-17T13:54:58.101Z,17.70
2018-10-17T13:57:27.422Z,17.60
2018-10-17T13:59:56.745Z,17.50
2018-10-17T14:02:26.118Z,17.70
2018-10-17T14:04:55.523Z,17.70
2018-10-17T14:07:24.918Z,17.80
2018-10-17T14:09:54.254Z,17.80
2018-10-17T14:12:23.528Z,17.80
2018-10-17T14:14:52.824Z,17.70
2018-10-17T14:17:22.020Z,17.60
2018-10-17T14:19:51.247Z,17.60
2018-10-17T14:22:20.620Z,17.80
2018-10-17T14:24:49.743Z,17.70
2018-10-17T14:27:19.023Z,17.60
2018-10-17T14:29:48.366Z,17.50
2018-10-17T14:32:17.511Z,17.50
2018-10-17T14:34:46.631Z,17.60
2018-10-17T14:37:15.802Z,17.50
2018-10-17T14:39:45.140Z,17.50
2018-10-17T14:42:14.434Z,17.70
2018-10-17T14:44:43.540Z,17.60
2018-10-17T14:47:12.709Z,17.80
2018-10-17T14:49:41.927Z,17.70
2018-10-17T14:52:11.104Z,17.60
2018-10-17T14:54:40.318Z,17.40
2018-10-17T14:57:09.541Z,17.20
2018-10-17T14:59:38.912Z,17.20
2018-10-17T15:02:08.275Z,17.30
2018-10-17T15:04:37.615Z,17.30
2018-10-17T15:07:07.016Z,17.20
2018-10-17T15:09:36.119Z,17.20
2018-10-17T15:12:05.546Z,17.20
2018-10-17T15:14:34.479Z,17.20
2018-10-17T15:17:03.710Z,17.00
2018-10-17T15:19:32.884Z,17.10
2018-10-17T15:22:02.096Z,17.00
2018-10-17T15:24:31.276Z,17.00
2018-10-17T15:27:00.740Z,17.00
2018-10-17T15:29:29.969Z,17.00
2018-10-17T15:31:59.247Z,16.90
2018-10-17T15:34:28.362Z,17.00
2018-10-17T15:36:57.552Z,16.90
2018-10-17T15:39:26.555Z,16.70
2018-10-17T15:41:55.841Z,16.70
2018-10-17T15:44:25.055Z,16.60
2018-10-17T15:46:54.185Z,16.50
2018-10-17T15:49:23.339Z,16.50
2018-10-17T15:51:52.575Z,16.40
2018-10-17T15:54:21.654Z,16.40
2018-10-17T15:56:50.831Z,16.30
2018-10-17T15:59:19.888Z,16.20
2018-10-17T16:01:49.041Z,16.10
2018-10-17T16:04:18.333Z,16.00
2018-10-17T16:06:47.879Z,15.90
2018-10-17T16:09:17.135Z,15.80
2018-10-17T16:11:46.368Z,15.80
2018-10-17T16:14:15.775Z,15.70
2018-10-17T16:16:47.184Z,15.60
2018-10-17T16:19:16.475Z,15.60
2018-10-17T16:21:45.611Z,15.50
2018-10-17T16:24:15.018Z,15.40
2018-10-17T16:26:44.077Z,15.30
2018-10-17T16:29:13.294Z,15.20
2018-10-17T16:31:42.581Z,15.10
2018-10-17T16:34:11.800Z,15.00
2018-10-17T16:36:41.068Z,14.90
2018-10-17T16:39:11.891Z,14.80
2018-10-17T16:41:41.303Z,14.70
2018-10-17T16:44:12.192Z,14.70
2018-10-17T16:46:42.269Z,14.60
2018-10-17T16:49:11.998Z,14.60
2018-10-17T16:51:41.272Z,14.50
2018-10-17T16:54:10.474Z,14.40
2018-10-17T16:56:39.766Z,14.30
2018-10-17T16:59:08.900Z,14.20
2018-10-17T17:01:38.055Z,14.20
2018-10-17T17:04:07.395Z,14.10
2018-10-17T17:06:36.649Z,14.10
2018-10-17T17:09:08.835Z,14.00
2018-10-17T17:11:38.116Z,14.00
2018-10-17T17:14:07.364Z,13.90
2018-10-17T17:16:36.679Z,13.80
2018-10-17T17:19:06.113Z,13.70
2018-10-17T17:21:35.203Z,13.70
2018-10-17T17:24:04.496Z,13.60
2018-10-17T17:26:33.999Z,13.60
2018-10-17T17:29:03.388Z,13.60
2018-10-17T17:31:32.727Z,13.60
2018-10-17T17:34:01.869Z,13.60
2018-10-17T17:36:31.378Z,13.50
2018-10-17T17:39:01.297Z,13.50
2018-10-17T17:43:59.768Z,13.40
2018-10-17T17:46:29.313Z,13.40
2018-10-17T17:48:58.775Z,13.40
2018-10-17T17:51:28.042Z,13.30
2018-10-17T17:53:57.283Z,13.20
2018-10-17T17:56:26.540Z,13.20
2018-10-17T17:58:55.885Z,13.20
2018-10-17T18:01:25.147Z,13.20
2018-10-17T18:03:54.411Z,13.10
2018-10-17T18:06:23.659Z,13.10
2018-10-17T18:08:53.074Z,13.10
2018-10-17T18:11:23.866Z,13.00
2018-10-17T18:13:54.091Z,13.00
2018-10-17T18:16:23.411Z,12.90
2018-10-17T18:18:52.694Z,12.90
2018-10-17T18:21:22.978Z,12.80
2018-10-17T18:23:52.232Z,12.70
2018-10-17T18:26:21.764Z,12.70
2018-10-17T18:28:51.138Z,12.70
2018-10-17T18:31:22.284Z,12.70
2018-10-17T18:33:51.557Z,12.60
2018-10-17T18:36:20.748Z,12.60
2018-10-17T18:38:49.867Z,12.60
2018-10-17T18:41:18.988Z,12.50
2018-10-17T18:43:48.238Z,12.50
2018-10-17T18:46:17.590Z,12.50
2018-10-17T18:48:46.867Z,12.40
2018-10-17T18:51:16.241Z,12.40
2018-10-17T18:53:45.555Z,12.30
2018-10-17T18:56:14.870Z,12.40
2018-10-17T18:58:46.513Z,12.40
2018-10-17T19:01:15.947Z,12.30
2018-10-17T19:03:45.210Z,12.30
2018-10-17T19:06:14.459Z,12.30
2018-10-17T19:08:43.749Z,12.30
2018-10-17T19:11:13.014Z,12.30
2018-10-17T19:13:42.344Z,12.20
2018-10-17T19:16:11.742Z,12.20
2018-10-17T19:18:42.304Z,12.10
2018-10-17T19:21:11.683Z,12.10
2018-10-17T19:23:41.071Z,12.00
2018-10-17T19:26:10.267Z,12.00
2018-10-17T19:28:39.567Z,12.00
2018-10-17T19:31:08.744Z,11.90
2018-10-17T19:33:45.750Z,11.90
2018-10-17T19:36:15.132Z,11.90
2018-10-17T19:38:46.509Z,11.80
2018-10-17T19:41:19.162Z,11.80
2018-10-17T19:43:48.371Z,11.80
2018-10-17T19:46:17.655Z,11.70
2018-10-17T19:48:46.896Z,11.70
2018-10-17T19:51:16.330Z,11.70
2018-10-17T19:53:45.483Z,11.70
2018-10-17T19:56:14.696Z,11.70
2018-10-17T19:58:44.782Z,11.60
2018-10-17T20:01:14.183Z,11.60
2018-10-17T20:03:43.596Z,11.60
2018-10-17T20:06:12.971Z,11.60
2018-10-17T20:08:42.091Z,11.50
2018-10-17T20:11:11.366Z,11.50
2018-10-17T20:13:40.585Z,11.50
2018-10-17T20:16:09.895Z,11.50
2018-10-17T20:18:39.639Z,11.40
2018-10-17T20:21:09.079Z,11.40
2018-10-17T20:23:38.268Z,11.40
2018-10-17T20:26:07.599Z,11.30
2018-10-17T20:28:37.070Z,11.30
2018-10-17T20:31:06.206Z,11.20
2018-10-17T20:33:35.509Z,11.20
2018-10-17T20:36:04.770Z,11.20
2018-10-17T20:38:34.092Z,11.20
2018-10-17T20:41:03.261Z,11.20
2018-10-17T20:43:32.469Z,11.20
2018-10-17T20:46:01.871Z,11.10
2018-10-17T20:48:31.087Z,11.10
2018-10-17T20:51:00.460Z,11.10
2018-10-17T20:53:29.807Z,11.10
2018-10-17T20:55:59.185Z,11.10
2018-10-17T20:58:28.387Z,11.10
2018-10-17T21:00:57.551Z,11.10
2018-10-17T21:03:26.995Z,11.00
2018-10-17T21:05:56.363Z,11.00
2018-10-17T21:08:25.699Z,10.90
2018-10-17T21:10:54.954Z,10.90
2018-10-17T21:13:24.203Z,10.90
2018-10-17T21:15:53.362Z,10.80
2018-10-17T21:18:22.551Z,10.80
2018-10-17T21:20:51.754Z,10.80
2018-10-17T21:23:20.984Z,10.80
2018-10-17T21:25:50.043Z,10.80
2018-10-17T21:28:19.183Z,10.80
2018-10-17T21:30:48.447Z,10.80
2018-10-17T21:33:17.558Z,10.70
2018-10-17T21:35:46.930Z,10.70
2018-10-17T21:38:16.221Z,10.70
2018-10-17T21:40:45.435Z,10.60
2018-10-17T21:43:14.764Z,10.70
2018-10-17T21:45:43.939Z,10.70
2018-10-17T21:48:13.156Z,10.70
2018-10-17T21:50:42.335Z,10.70
2018-10-17T21:53:11.559Z,10.70
2018-10-17T21:55:40.727Z,10.70
2018-10-17T21:58:09.848Z,10.60
2018-10-17T22:00:39.624Z,10.60
2018-10-17T22:03:08.972Z,10.60
2018-10-17T22:05:38.129Z,10.60
2018-10-17T22:08:07.403Z,10.50
2018-10-17T22:10:36.631Z,10.50
2018-10-17T22:13:05.980Z,10.40
2018-10-17T22:15:35.116Z,10.40
2018-10-17T22:18:04.347Z,10.30
2018-10-17T22:20:33.608Z,10.30
2018-10-17T22:23:02.943Z,10.30
2018-10-17T22:25:32.211Z,10.30
2018-10-17T22:28:01.405Z,10.40
2018-10-17T22:30:30.619Z,10.30
2018-10-17T22:32:59.846Z,10.30
2018-10-17T22:35:29.110Z,10.30
2018-10-17T22:37:58.243Z,10.30
2018-10-17T22:40:27.503Z,10.20
2018-10-17T22:42:56.740Z,10.20
2018-10-17T22:45:25.899Z,10.10
2018-10-17T22:47:55.233Z,10.20
2018-10-17T22:50:24.503Z,10.20
2018-10-17T22:52:53.738Z,10.20
2018-10-17T22:55:23.122Z,10.10
2018-10-17T22:57:52.326Z,10.10
2018-10-17T23:00:26.802Z,10.10
2018-10-17T23:02:56.150Z,10.10
2018-10-17T23:05:25.470Z,10.10
2018-10-17T23:07:54.663Z,10.00
2018-10-17T23:10:23.947Z,10.00
2018-10-17T23:12:53.219Z,10.00
2018-10-17T23:15:22.452Z,10.00
2018-10-17T23:17:51.611Z,9.90
2018-10-17T23:20:20.831Z,10.00
2018-10-17T23:22:50.204Z,10.00
2018-10-17T23:25:19.539Z,10.00
2018-10-17T23:27:48.915Z,10.00
2018-10-17T23:30:18.043Z,9.90
2018-10-17T23:32:47.307Z,9.90
2018-10-17T23:35:16.435Z,9.90
2018-10-17T23:37:45.778Z,9.90
2018-10-17T23:40:14.923Z,9.90
2018-10-17T23:42:44.319Z,9.90
2018-10-17T23:45:13.726Z,9.90
2018-10-17T23:47:43.011Z,9.80
2018-10-17T23:50:12.295Z,9.80
2018-10-17T23:52:41.499Z,9.70
2018-10-17T23:55:10.629Z,9.70
2018-10-17T23:57:39.995Z,9.70
